Lossiemouth, United Kingdom
Current Conditions -  °F | °C
As of 4:50 PM on Thursday 23 Oct 2014 (Local Time) from EGQS Reporting Station
Light Rain Light Rain  
Wind Chill: 59°   Ceiling: 4500
Heat Index: 59°   Visibility: 6mi
Dew Point: 50°   Wind: 15mph
Humidity: 72%   Direction: 210°SSW
Pressure: 29.56"   Gusts: NA
Location:  57.72°N, 3.28°W
Report Text: EGQS 231550Z 21013KT 9999 -RA FEW012 BKN045 BKN080 15/10 Q1001 BLU TEMPO 7000 -RADZ SCT022 WHT
Loading
Personal Weather Stations






























Interactive Weather Map New forecast layout! Learn more

10-Day Weather Forecast

Advertisements
Track Severe Weather on mobile